sensor_id;sensor_type;location;lat;lon;timestamp;P1;durP1;ratioP1;P2;durP2;ratioP2
9322;SDS011;4700;48.822;9.270;2022-10-03T01:09:21;18.37;;;13.77;;
9322;SDS011;4700;48.822;9.270;2022-10-03T01:27:54;15.27;;;13.03;;
9322;SDS011;4700;48.822;9.270;2022-10-03T01:51:15;16.53;;;14.30;;
9322;SDS011;4700;48.822;9.270;2022-10-03T01:56:44;17.93;;;14.87;;
9322;SDS011;4700;48.822;9.270;2022-10-03T01:59:38;18.03;;;14.47;;
9322;SDS011;4700;48.822;9.270;2022-10-03T02:02:30;19.30;;;15.00;;
9322;SDS011;4700;48.822;9.270;2022-10-03T02:07:41;21.83;;;16.80;;
9322;SDS011;4700;48.822;9.270;2022-10-03T02:10:37;20.70;;;15.27;;
9322;SDS011;4700;48.822;9.270;2022-10-03T02:13:30;17.57;;;15.20;;
9322;SDS011;4700;48.822;9.270;2022-10-03T02:16:29;20.50;;;15.53;;
9322;SDS011;4700;48.822;9.270;2022-10-03T02:19:21;22.77;;;15.20;;
9322;SDS011;4700;48.822;9.270;2022-10-03T02:22:14;20.60;;;16.53;;
9322;SDS011;4700;48.822;9.270;2022-10-03T02:25:19;22.40;;;15.20;;
9322;SDS011;4700;48.822;9.270;2022-10-03T02:31:26;20.47;;;16.57;;
9322;SDS011;4700;48.822;9.270;2022-10-03T02:48:31;22.37;;;15.43;;
9322;SDS011;4700;48.822;9.270;2022-10-03T02:51:57;17.50;;;14.43;;
9322;SDS011;4700;48.822;9.270;2022-10-03T02:55:17;18.83;;;14.20;;
9322;SDS011;4700;48.822;9.270;2022-10-03T02:58:24;24.87;;;16.23;;
9322;SDS011;4700;48.822;9.270;2022-10-03T03:01:47;18.27;;;13.30;;
9322;SDS011;4700;48.822;9.270;2022-10-03T03:04:50;15.83;;;13.63;;
9322;SDS011;4700;48.822;9.270;2022-10-03T03:08:16;17.33;;;12.63;;
9322;SDS011;4700;48.822;9.270;2022-10-03T03:11:32;19.03;;;14.20;;
9322;SDS011;4700;48.822;9.270;2022-10-03T03:15:23;16.60;;;14.80;;
9322;SDS011;4700;48.822;9.270;2022-10-03T03:18:32;19.73;;;15.00;;
9322;SDS011;4700;48.822;9.270;2022-10-03T03:21:22;20.10;;;14.90;;
9322;SDS011;4700;48.822;9.270;2022-10-03T03:24:40;17.73;;;14.10;;
9322;SDS011;4700;48.822;9.270;2022-10-03T03:27:44;18.33;;;15.00;;
9322;SDS011;4700;48.822;9.270;2022-10-03T03:30:39;17.20;;;14.20;;
9322;SDS011;4700;48.822;9.270;2022-10-03T03:33:34;18.80;;;14.57;;
9322;SDS011;4700;48.822;9.270;2022-10-03T03:36:30;18.70;;;14.07;;
9322;SDS011;4700;48.822;9.270;2022-10-03T03:39:03;18.23;;;15.57;;
9322;SDS011;4700;48.822;9.270;2022-10-03T03:42:11;19.30;;;14.90;;
9322;SDS011;4700;48.822;9.270;2022-10-03T03:45:15;18.97;;;15.23;;
9322;SDS011;4700;48.822;9.270;2022-10-03T03:48:17;19.77;;;15.10;;
9322;SDS011;4700;48.822;9.270;2022-10-03T03:51:27;16.73;;;13.93;;
9322;SDS011;4700;48.822;9.270;2022-10-03T03:54:22;15.20;;;13.60;;
9322;SDS011;4700;48.822;9.270;2022-10-03T03:57:41;13.63;;;11.40;;
9322;SDS011;4700;48.822;9.270;2022-10-03T04:03:06;16.50;;;14.53;;
9322;SDS011;4700;48.822;9.270;2022-10-03T04:11:45;18.77;;;14.50;;
9322;SDS011;4700;48.822;9.270;2022-10-03T04:27:37;15.00;;;12.80;;
9322;SDS011;4700;48.822;9.270;2022-10-03T04:30:27;16.50;;;14.03;;
9322;SDS011;4700;48.822;9.270;2022-10-03T04:33:30;22.90;;;15.23;;
9322;SDS011;4700;48.822;9.270;2022-10-03T04:41:31;18.70;;;14.30;;
9322;SDS011;4700;48.822;9.270;2022-10-03T04:44:30;17.50;;;15.47;;
9322;SDS011;4700;48.822;9.270;2022-10-03T04:47:30;16.97;;;14.47;;
9322;SDS011;4700;48.822;9.270;2022-10-03T04:55:32;17.20;;;14.60;;
9322;SDS011;4700;48.822;9.270;2022-10-03T04:58:29;20.60;;;14.50;;
9322;SDS011;4700;48.822;9.270;2022-10-03T05:09:11;17.43;;;14.63;;
9322;SDS011;4700;48.822;9.270;2022-10-03T05:19:56;17.77;;;14.20;;
9322;SDS011;4700;48.822;9.270;2022-10-03T05:35:47;20.10;;;15.00;;
9322;SDS011;4700;48.822;9.270;2022-10-03T05:38:58;20.53;;;14.00;;
9322;SDS011;4700;48.822;9.270;2022-10-03T05:44:38;24.10;;;17.23;;
9322;SDS011;4700;48.822;9.270;2022-10-03T05:47:27;25.47;;;15.77;;
9322;SDS011;4700;48.822;9.270;2022-10-03T05:50:41;21.67;;;16.67;;
9322;SDS011;4700;48.822;9.270;2022-10-03T05:54:05;24.23;;;15.40;;
9322;SDS011;4700;48.822;9.270;2022-10-03T05:57:23;30.13;;;17.43;;
9322;SDS011;4700;48.822;9.270;2022-10-03T06:00:22;23.43;;;16.97;;
9322;SDS011;4700;48.822;9.270;2022-10-03T06:06:33;25.63;;;19.13;;
9322;SDS011;4700;48.822;9.270;2022-10-03T06:09:37;20.00;;;16.00;;
9322;SDS011;4700;48.822;9.270;2022-10-03T06:12:46;25.93;;;18.10;;
9322;SDS011;4700;48.822;9.270;2022-10-03T06:15:44;19.60;;;14.47;;
9322;SDS011;4700;48.822;9.270;2022-10-03T06:22:25;23.47;;;16.40;;
9322;SDS011;4700;48.822;9.270;2022-10-03T06:25:54;21.77;;;16.90;;
9322;SDS011;4700;48.822;9.270;2022-10-03T06:32:32;17.60;;;15.30;;
9322;SDS011;4700;48.822;9.270;2022-10-03T06:35:52;22.73;;;17.77;;
9322;SDS011;4700;48.822;9.270;2022-10-03T06:42:40;18.60;;;15.20;;
9322;SDS011;4700;48.822;9.270;2022-10-03T06:45:48;15.50;;;13.60;;
9322;SDS011;4700;48.822;9.270;2022-10-03T06:52:43;16.03;;;14.33;;
9322;SDS011;4700;48.822;9.270;2022-10-03T06:55:50;18.13;;;14.83;;
9322;SDS011;4700;48.822;9.270;2022-10-03T06:59:00;16.93;;;15.00;;
9322;SDS011;4700;48.822;9.270;2022-10-03T07:02:04;21.07;;;16.90;;
9322;SDS011;4700;48.822;9.270;2022-10-03T07:08:38;22.60;;;14.77;;
9322;SDS011;4700;48.822;9.270;2022-10-03T07:11:58;17.77;;;14.77;;
9322;SDS011;4700;48.822;9.270;2022-10-03T07:15:24;17.03;;;13.03;;
9322;SDS011;4700;48.822;9.270;2022-10-03T07:18:39;17.90;;;14.40;;
9322;SDS011;4700;48.822;9.270;2022-10-03T07:25:28;16.07;;;14.40;;
9322;SDS011;4700;48.822;9.270;2022-10-03T07:28:55;15.97;;;13.10;;
9322;SDS011;4700;48.822;9.270;2022-10-03T07:32:09;13.93;;;12.30;;
9322;SDS011;4700;48.822;9.270;2022-10-03T07:35:21;15.73;;;12.10;;
9322;SDS011;4700;48.822;9.270;2022-10-03T07:38:48;14.90;;;12.70;;
9322;SDS011;4700;48.822;9.270;2022-10-03T07:45:26;17.27;;;12.40;;
9322;SDS011;4700;48.822;9.270;2022-10-03T07:48:26;15.03;;;10.67;;
9322;SDS011;4700;48.822;9.270;2022-10-03T07:51:39;14.47;;;12.93;;
9322;SDS011;4700;48.822;9.270;2022-10-03T07:54:38;15.43;;;12.57;;
9322;SDS011;4700;48.822;9.270;2022-10-03T07:57:49;16.50;;;13.40;;
9322;SDS011;4700;48.822;9.270;2022-10-03T08:00:57;14.90;;;12.53;;
9322;SDS011;4700;48.822;9.270;2022-10-03T08:07:41;17.63;;;13.63;;
9322;SDS011;4700;48.822;9.270;2022-10-03T08:10:55;15.10;;;12.90;;
9322;SDS011;4700;48.822;9.270;2022-10-03T08:13:59;18.20;;;13.50;;
9322;SDS011;4700;48.822;9.270;2022-10-03T08:17:08;21.80;;;14.60;;
9322;SDS011;4700;48.822;9.270;2022-10-03T08:20:22;17.00;;;13.20;;
9322;SDS011;4700;48.822;9.270;2022-10-03T08:26:56;17.30;;;12.93;;
9322;SDS011;4700;48.822;9.270;2022-10-03T08:30:12;19.77;;;15.67;;
9322;SDS011;4700;48.822;9.270;2022-10-03T08:33:17;14.60;;;13.10;;
9322;SDS011;4700;48.822;9.270;2022-10-03T08:39:29;17.87;;;14.00;;
9322;SDS011;4700;48.822;9.270;2022-10-03T08:42:31;15.07;;;12.73;;
9322;SDS011;4700;48.822;9.270;2022-10-03T08:45:41;15.10;;;11.90;;
9322;SDS011;4700;48.822;9.270;2022-10-03T09:01:52;14.50;;;10.40;;
9322;SDS011;4700;48.822;9.270;2022-10-03T09:11:45;11.03;;;8.83;;
9322;SDS011;4700;48.822;9.270;2022-10-03T09:14:54;8.60;;;7.70;;
9322;SDS011;4700;48.822;9.270;2022-10-03T09:21:39;8.63;;;6.77;;
9322;SDS011;4700;48.822;9.270;2022-10-03T09:25:01;7.13;;;6.43;;
9322;SDS011;4700;48.822;9.270;2022-10-03T09:31:39;6.77;;;5.83;;
9322;SDS011;4700;48.822;9.270;2022-10-03T09:34:55;7.80;;;6.57;;
9322;SDS011;4700;48.822;9.270;2022-10-03T09:38:10;12.40;;;7.70;;
9322;SDS011;4700;48.822;9.270;2022-10-03T09:41:35;6.97;;;6.10;;
9322;SDS011;4700;48.822;9.270;2022-10-03T09:44:38;6.80;;;6.10;;
9322;SDS011;4700;48.822;9.270;2022-10-03T09:51:22;7.23;;;5.70;;
9322;SDS011;4700;48.822;9.270;2022-10-03T09:58:01;6.27;;;5.23;;
9322;SDS011;4700;48.822;9.270;2022-10-03T10:01:09;7.40;;;5.13;;
9322;SDS011;4700;48.822;9.270;2022-10-03T10:04:25;9.20;;;6.10;;
9322;SDS011;4700;48.822;9.270;2022-10-03T10:07:39;7.70;;;5.80;;
9322;SDS011;4700;48.822;9.270;2022-10-03T10:11:02;11.87;;;6.60;;
9322;SDS011;4700;48.822;9.270;2022-10-03T10:14:30;7.07;;;5.33;;
9322;SDS011;4700;48.822;9.270;2022-10-03T10:17:55;12.80;;;6.23;;
9322;SDS011;4700;48.822;9.270;2022-10-03T10:21:32;10.27;;;5.43;;
9322;SDS011;4700;48.822;9.270;2022-10-03T10:34:32;8.07;;;5.10;;
9322;SDS011;4700;48.822;9.270;2022-10-03T10:44:54;6.63;;;5.30;;
9322;SDS011;4700;48.822;9.270;2022-10-03T10:48:17;6.97;;;5.10;;
9322;SDS011;4700;48.822;9.270;2022-10-03T10:55:35;8.57;;;6.23;;
9322;SDS011;4700;48.822;9.270;2022-10-03T10:58:45;5.23;;;4.73;;
9322;SDS011;4700;48.822;9.270;2022-10-03T11:06:11;7.97;;;5.83;;
9322;SDS011;4700;48.822;9.270;2022-10-03T11:09:45;8.70;;;5.70;;
9322;SDS011;4700;48.822;9.270;2022-10-03T11:29:57;7.47;;;5.57;;
9322;SDS011;4700;48.822;9.270;2022-10-03T11:39:47;7.47;;;5.20;;
9322;SDS011;4700;48.822;9.270;2022-10-03T11:42:47;12.10;;;5.43;;
9322;SDS011;4700;48.822;9.270;2022-10-03T11:45:39;5.87;;;4.83;;
9322;SDS011;4700;48.822;9.270;2022-10-03T11:48:36;7.90;;;4.60;;
9322;SDS011;4700;48.822;9.270;2022-10-03T11:51:29;9.73;;;5.60;;
9322;SDS011;4700;48.822;9.270;2022-10-03T11:54:23;9.73;;;5.50;;
9322;SDS011;4700;48.822;9.270;2022-10-03T11:57:14;8.17;;;4.90;;
9322;SDS011;4700;48.822;9.270;2022-10-03T12:00:09;5.20;;;4.00;;
9322;SDS011;4700;48.822;9.270;2022-10-03T12:03:09;7.80;;;4.17;;
9322;SDS011;4700;48.822;9.270;2022-10-03T12:06:07;6.07;;;3.83;;
9322;SDS011;4700;48.822;9.270;2022-10-03T12:09:16;7.90;;;4.13;;
9322;SDS011;4700;48.822;9.270;2022-10-03T12:12:09;7.93;;;4.23;;
9322;SDS011;4700;48.822;9.270;2022-10-03T12:15:18;4.43;;;3.93;;
9322;SDS011;4700;48.822;9.270;2022-10-03T12:18:13;4.33;;;3.53;;
9322;SDS011;4700;48.822;9.270;2022-10-03T12:21:08;8.43;;;3.93;;
9322;SDS011;4700;48.822;9.270;2022-10-03T12:23:57;3.43;;;3.00;;
9322;SDS011;4700;48.822;9.270;2022-10-03T12:26:52;8.57;;;4.53;;
9322;SDS011;4700;48.822;9.270;2022-10-03T12:29:52;6.13;;;3.10;;
9322;SDS011;4700;48.822;9.270;2022-10-03T12:32:43;6.57;;;4.13;;
9322;SDS011;4700;48.822;9.270;2022-10-03T12:35:42;5.30;;;4.10;;
9322;SDS011;4700;48.822;9.270;2022-10-03T12:38:44;3.97;;;3.50;;
9322;SDS011;4700;48.822;9.270;2022-10-03T12:41:55;3.23;;;2.97;;
9322;SDS011;4700;48.822;9.270;2022-10-03T12:44:54;6.93;;;3.90;;
9322;SDS011;4700;48.822;9.270;2022-10-03T12:47:48;5.87;;;3.63;;
9322;SDS011;4700;48.822;9.270;2022-10-03T12:50:50;8.30;;;3.87;;
9322;SDS011;4700;48.822;9.270;2022-10-03T12:53:45;5.60;;;3.60;;
9322;SDS011;4700;48.822;9.270;2022-10-03T12:56:41;5.00;;;3.47;;
9322;SDS011;4700;48.822;9.270;2022-10-03T12:59:32;3.40;;;3.10;;
9322;SDS011;4700;48.822;9.270;2022-10-03T13:02:26;5.90;;;3.17;;
9322;SDS011;4700;48.822;9.270;2022-10-03T13:05:23;6.07;;;3.37;;
9322;SDS011;4700;48.822;9.270;2022-10-03T13:08:22;4.73;;;3.23;;
9322;SDS011;4700;48.822;9.270;2022-10-03T13:11:29;9.07;;;5.10;;
9322;SDS011;4700;48.822;9.270;2022-10-03T13:14:24;4.20;;;3.20;;
9322;SDS011;4700;48.822;9.270;2022-10-03T13:17:20;5.97;;;3.17;;
9322;SDS011;4700;48.822;9.270;2022-10-03T13:20:14;4.30;;;2.93;;
9322;SDS011;4700;48.822;9.270;2022-10-03T13:23:08;3.97;;;2.60;;
9322;SDS011;4700;48.822;9.270;2022-10-03T13:26:05;3.37;;;2.50;;
9322;SDS011;4700;48.822;9.270;2022-10-03T13:29:01;6.43;;;3.13;;
9322;SDS011;4700;48.822;9.270;2022-10-03T13:32:08;4.30;;;2.77;;
9322;SDS011;4700;48.822;9.270;2022-10-03T13:35:02;6.27;;;2.40;;
9322;SDS011;4700;48.822;9.270;2022-10-03T13:41:55;4.43;;;2.70;;
9322;SDS011;4700;48.822;9.270;2022-10-03T13:44:52;3.37;;;2.30;;
9322;SDS011;4700;48.822;9.270;2022-10-03T13:47:24;3.60;;;2.27;;
9322;SDS011;4700;48.822;9.270;2022-10-03T13:50:15;5.00;;;2.13;;
9322;SDS011;4700;48.822;9.270;2022-10-03T13:53:07;4.07;;;2.60;;
9322;SDS011;4700;48.822;9.270;2022-10-03T13:55:59;4.27;;;2.40;;
9322;SDS011;4700;48.822;9.270;2022-10-03T13:58:54;3.43;;;2.40;;
9322;SDS011;4700;48.822;9.270;2022-10-03T14:01:48;6.43;;;2.67;;
9322;SDS011;4700;48.822;9.270;2022-10-03T14:04:45;1.93;;;1.83;;
9322;SDS011;4700;48.822;9.270;2022-10-03T14:07:46;5.83;;;2.63;;
9322;SDS011;4700;48.822;9.270;2022-10-03T14:10:59;4.50;;;2.93;;
9322;SDS011;4700;48.822;9.270;2022-10-03T14:14:09;5.43;;;2.13;;
9322;SDS011;4700;48.822;9.270;2022-10-03T14:17:19;5.47;;;2.50;;
9322;SDS011;4700;48.822;9.270;2022-10-03T14:20:16;4.50;;;2.27;;
9322;SDS011;4700;48.822;9.270;2022-10-03T14:23:11;3.53;;;2.13;;
9322;SDS011;4700;48.822;9.270;2022-10-03T14:26:06;2.37;;;2.17;;
9322;SDS011;4700;48.822;9.270;2022-10-03T14:28:59;5.53;;;1.97;;
9322;SDS011;4700;48.822;9.270;2022-10-03T14:31:50;4.20;;;2.63;;
9322;SDS011;4700;48.822;9.270;2022-10-03T14:34:47;5.73;;;2.00;;
9322;SDS011;4700;48.822;9.270;2022-10-03T14:37:38;3.60;;;1.97;;
9322;SDS011;4700;48.822;9.270;2022-10-03T14:40:32;3.00;;;2.50;;
9322;SDS011;4700;48.822;9.270;2022-10-03T14:43:30;3.37;;;1.87;;
9322;SDS011;4700;48.822;9.270;2022-10-03T14:46:23;2.90;;;2.20;;
9322;SDS011;4700;48.822;9.270;2022-10-03T14:49:13;5.57;;;3.20;;
9322;SDS011;4700;48.822;9.270;2022-10-03T14:52:05;3.43;;;2.03;;
9322;SDS011;4700;48.822;9.270;2022-10-03T14:55:00;6.17;;;2.40;;
9322;SDS011;4700;48.822;9.270;2022-10-03T14:57:52;5.20;;;2.70;;
9322;SDS011;4700;48.822;9.270;2022-10-03T15:00:45;4.30;;;2.23;;
9322;SDS011;4700;48.822;9.270;2022-10-03T15:03:33;2.80;;;2.53;;
9322;SDS011;4700;48.822;9.270;2022-10-03T15:09:42;5.00;;;2.23;;
9322;SDS011;4700;48.822;9.270;2022-10-03T15:12:33;3.70;;;2.53;;
9322;SDS011;4700;48.822;9.270;2022-10-03T15:15:22;4.10;;;2.60;;
9322;SDS011;4700;48.822;9.270;2022-10-03T15:18:12;8.33;;;3.03;;
9322;SDS011;4700;48.822;9.270;2022-10-03T15:21:00;4.93;;;3.37;;
9322;SDS011;4700;48.822;9.270;2022-10-03T15:23:47;4.40;;;2.40;;
9322;SDS011;4700;48.822;9.270;2022-10-03T15:26:41;3.07;;;2.07;;
9322;SDS011;4700;48.822;9.270;2022-10-03T15:29:32;2.87;;;2.63;;
9322;SDS011;4700;48.822;9.270;2022-10-03T15:32:19;4.37;;;2.60;;
9322;SDS011;4700;48.822;9.270;2022-10-03T15:35:13;4.13;;;2.30;;
9322;SDS011;4700;48.822;9.270;2022-10-03T15:38:02;5.73;;;2.77;;
9322;SDS011;4700;48.822;9.270;2022-10-03T15:41:06;5.43;;;2.50;;
9322;SDS011;4700;48.822;9.270;2022-10-03T15:43:57;5.57;;;2.70;;
9322;SDS011;4700;48.822;9.270;2022-10-03T15:46:49;9.53;;;5.40;;
9322;SDS011;4700;48.822;9.270;2022-10-03T15:49:38;5.27;;;3.23;;
9322;SDS011;4700;48.822;9.270;2022-10-03T15:52:30;4.97;;;3.17;;
9322;SDS011;4700;48.822;9.270;2022-10-03T15:55:24;3.40;;;2.70;;
9322;SDS011;4700;48.822;9.270;2022-10-03T15:58:15;5.97;;;3.40;;
9322;SDS011;4700;48.822;9.270;2022-10-03T16:01:06;4.70;;;2.53;;
9322;SDS011;4700;48.822;9.270;2022-10-03T16:03:56;3.60;;;2.80;;
9322;SDS011;4700;48.822;9.270;2022-10-03T16:06:44;5.17;;;2.30;;
9322;SDS011;4700;48.822;9.270;2022-10-03T16:09:40;6.00;;;3.10;;
9322;SDS011;4700;48.822;9.270;2022-10-03T16:12:36;5.50;;;3.20;;
9322;SDS011;4700;48.822;9.270;2022-10-03T16:15:37;9.47;;;3.10;;
9322;SDS011;4700;48.822;9.270;2022-10-03T16:18:43;8.43;;;3.40;;
9322;SDS011;4700;48.822;9.270;2022-10-03T16:21:41;3.83;;;2.83;;
9322;SDS011;4700;48.822;9.270;2022-10-03T16:24:30;3.60;;;2.53;;
9322;SDS011;4700;48.822;9.270;2022-10-03T16:27:20;3.00;;;2.23;;
9322;SDS011;4700;48.822;9.270;2022-10-03T16:30:15;2.60;;;2.40;;
9322;SDS011;4700;48.822;9.270;2022-10-03T16:33:11;6.50;;;3.37;;
9322;SDS011;4700;48.822;9.270;2022-10-03T16:36:02;5.03;;;3.57;;
9322;SDS011;4700;48.822;9.270;2022-10-03T16:38:51;5.23;;;3.60;;
9322;SDS011;4700;48.822;9.270;2022-10-03T16:41:38;5.50;;;2.90;;
9322;SDS011;4700;48.822;9.270;2022-10-03T16:44:37;5.43;;;4.60;;
9322;SDS011;4700;48.822;9.270;2022-10-03T16:47:27;7.53;;;4.10;;
9322;SDS011;4700;48.822;9.270;2022-10-03T16:50:18;10.47;;;5.03;;
9322;SDS011;4700;48.822;9.270;2022-10-03T16:53:09;6.70;;;3.90;;
9322;SDS011;4700;48.822;9.270;2022-10-03T16:55:56;9.23;;;5.87;;
9322;SDS011;4700;48.822;9.270;2022-10-03T16:58:49;4.87;;;4.43;;
9322;SDS011;4700;48.822;9.270;2022-10-03T17:01:37;5.97;;;4.17;;
9322;SDS011;4700;48.822;9.270;2022-10-03T17:04:27;28.53;;;20.73;;
9322;SDS011;4700;48.822;9.270;2022-10-03T17:07:17;23.33;;;17.43;;
9322;SDS011;4700;48.822;9.270;2022-10-03T17:10:20;22.47;;;15.60;;
9322;SDS011;4700;48.822;9.270;2022-10-03T17:13:13;21.30;;;14.80;;
9322;SDS011;4700;48.822;9.270;2022-10-03T17:16:02;11.03;;;6.10;;
9322;SDS011;4700;48.822;9.270;2022-10-03T17:19:00;8.17;;;5.40;;
9322;SDS011;4700;48.822;9.270;2022-10-03T17:21:54;5.77;;;5.00;;
9322;SDS011;4700;48.822;9.270;2022-10-03T17:24:51;4.97;;;4.57;;
9322;SDS011;4700;48.822;9.270;2022-10-03T17:27:45;6.57;;;4.60;;
9322;SDS011;4700;48.822;9.270;2022-10-03T17:30:34;3.90;;;3.43;;
9322;SDS011;4700;48.822;9.270;2022-10-03T17:33:30;7.63;;;4.33;;
9322;SDS011;4700;48.822;9.270;2022-10-03T17:36:37;4.43;;;3.50;;
9322;SDS011;4700;48.822;9.270;2022-10-03T17:39:47;4.70;;;3.57;;
9322;SDS011;4700;48.822;9.270;2022-10-03T17:42:38;5.13;;;4.67;;
9322;SDS011;4700;48.822;9.270;2022-10-03T17:45:32;5.80;;;3.70;;
9322;SDS011;4700;48.822;9.270;2022-10-03T17:48:09;4.67;;;3.97;;
9322;SDS011;4700;48.822;9.270;2022-10-03T17:51:00;4.80;;;4.40;;
9322;SDS011;4700;48.822;9.270;2022-10-03T17:54:05;4.17;;;3.83;;
9322;SDS011;4700;48.822;9.270;2022-10-03T17:56:57;7.47;;;5.60;;
9322;SDS011;4700;48.822;9.270;2022-10-03T17:59:51;8.10;;;4.87;;
9322;SDS011;4700;48.822;9.270;2022-10-03T18:02:43;9.43;;;5.47;;
9322;SDS011;4700;48.822;9.270;2022-10-03T18:05:34;8.70;;;6.07;;
9322;SDS011;4700;48.822;9.270;2022-10-03T18:08:26;9.60;;;6.13;;
9322;SDS011;4700;48.822;9.270;2022-10-03T18:11:15;8.73;;;5.90;;
9322;SDS011;4700;48.822;9.270;2022-10-03T18:14:07;6.73;;;5.97;;
9322;SDS011;4700;48.822;9.270;2022-10-03T18:17:02;10.77;;;7.07;;
9322;SDS011;4700;48.822;9.270;2022-10-03T18:19:55;13.17;;;8.50;;
9322;SDS011;4700;48.822;9.270;2022-10-03T18:22:57;8.43;;;6.77;;
9322;SDS011;4700;48.822;9.270;2022-10-03T18:25:54;13.47;;;7.93;;
9322;SDS011;4700;48.822;9.270;2022-10-03T18:28:49;9.50;;;7.03;;
9322;SDS011;4700;48.822;9.270;2022-10-03T18:31:43;7.07;;;6.37;;
9322;SDS011;4700;48.822;9.270;2022-10-03T18:34:33;7.10;;;6.10;;
9322;SDS011;4700;48.822;9.270;2022-10-03T18:40:45;15.20;;;8.03;;
9322;SDS011;4700;48.822;9.270;2022-10-03T18:43:34;9.00;;;8.13;;
9322;SDS011;4700;48.822;9.270;2022-10-03T18:46:32;12.57;;;8.50;;
9322;SDS011;4700;48.822;9.270;2022-10-03T18:49:23;11.67;;;9.47;;
9322;SDS011;4700;48.822;9.270;2022-10-03T18:52:13;16.67;;;11.20;;
9322;SDS011;4700;48.822;9.270;2022-10-03T18:55:05;11.53;;;10.33;;
9322;SDS011;4700;48.822;9.270;2022-10-03T18:58:00;12.50;;;10.10;;
9322;SDS011;4700;48.822;9.270;2022-10-03T19:00:57;14.93;;;10.17;;
9322;SDS011;4700;48.822;9.270;2022-10-03T19:03:48;12.77;;;10.37;;
9322;SDS011;4700;48.822;9.270;2022-10-03T19:06:40;14.90;;;10.53;;
9322;SDS011;4700;48.822;9.270;2022-10-03T19:09:28;13.10;;;10.70;;
9322;SDS011;4700;48.822;9.270;2022-10-03T19:12:20;10.87;;;9.53;;
9322;SDS011;4700;48.822;9.270;2022-10-03T19:15:11;13.03;;;9.87;;
9322;SDS011;4700;48.822;9.270;2022-10-03T19:18:05;13.17;;;9.43;;
9322;SDS011;4700;48.822;9.270;2022-10-03T19:21:03;11.93;;;9.43;;
9322;SDS011;4700;48.822;9.270;2022-10-03T19:24:02;8.63;;;7.73;;
9322;SDS011;4700;48.822;9.270;2022-10-03T19:26:55;9.50;;;7.80;;
9322;SDS011;4700;48.822;9.270;2022-10-03T19:29:46;12.63;;;8.60;;
9322;SDS011;4700;48.822;9.270;2022-10-03T19:32:43;11.70;;;8.77;;
9322;SDS011;4700;48.822;9.270;2022-10-03T19:35:34;9.53;;;8.73;;
9322;SDS011;4700;48.822;9.270;2022-10-03T19:38:23;11.07;;;8.27;;
9322;SDS011;4700;48.822;9.270;2022-10-03T19:41:13;9.20;;;8.30;;
9322;SDS011;4700;48.822;9.270;2022-10-03T19:44:07;12.03;;;8.17;;
9322;SDS011;4700;48.822;9.270;2022-10-03T19:47:03;11.30;;;8.43;;
9322;SDS011;4700;48.822;9.270;2022-10-03T19:50:02;15.10;;;9.40;;
9322;SDS011;4700;48.822;9.270;2022-10-03T19:52:56;9.53;;;8.50;;
9322;SDS011;4700;48.822;9.270;2022-10-03T19:55:43;19.63;;;8.47;;
9322;SDS011;4700;48.822;9.270;2022-10-03T19:58:31;16.73;;;9.67;;
9322;SDS011;4700;48.822;9.270;2022-10-03T20:01:17;8.37;;;7.50;;
9322;SDS011;4700;48.822;9.270;2022-10-03T20:04:05;11.97;;;8.83;;
9322;SDS011;4700;48.822;9.270;2022-10-03T20:06:50;10.10;;;9.10;;
9322;SDS011;4700;48.822;9.270;2022-10-03T20:09:38;9.30;;;8.40;;
9322;SDS011;4700;48.822;9.270;2022-10-03T20:12:38;12.83;;;9.90;;
9322;SDS011;4700;48.822;9.270;2022-10-03T20:15:33;10.30;;;9.30;;
9322;SDS011;4700;48.822;9.270;2022-10-03T20:18:25;10.13;;;8.67;;
9322;SDS011;4700;48.822;9.270;2022-10-03T20:21:17;11.90;;;8.50;;
9322;SDS011;4700;48.822;9.270;2022-10-03T20:24:08;11.17;;;8.07;;
9322;SDS011;4700;48.822;9.270;2022-10-03T20:26:58;10.83;;;9.80;;
9322;SDS011;4700;48.822;9.270;2022-10-03T20:29:58;12.43;;;9.03;;
9322;SDS011;4700;48.822;9.270;2022-10-03T20:32:50;10.67;;;9.27;;
9322;SDS011;4700;48.822;9.270;2022-10-03T20:35:50;22.83;;;9.80;;
9322;SDS011;4700;48.822;9.270;2022-10-03T20:41:56;10.10;;;9.00;;
9322;SDS011;4700;48.822;9.270;2022-10-03T20:44:47;11.40;;;8.80;;
9322;SDS011;4700;48.822;9.270;2022-10-03T20:50:50;10.47;;;8.07;;
9322;SDS011;4700;48.822;9.270;2022-10-03T20:53:40;12.67;;;9.10;;
9322;SDS011;4700;48.822;9.270;2022-10-03T20:56:30;13.37;;;10.43;;
9322;SDS011;4700;48.822;9.270;2022-10-03T20:59:25;9.90;;;8.60;;
9322;SDS011;4700;48.822;9.270;2022-10-03T21:02:23;9.43;;;8.53;;
9322;SDS011;4700;48.822;9.270;2022-10-03T21:05:13;12.27;;;9.20;;
9322;SDS011;4700;48.822;9.270;2022-10-03T21:08:10;11.70;;;9.10;;
9322;SDS011;4700;48.822;9.270;2022-10-03T21:11:02;12.73;;;9.70;;
9322;SDS011;4700;48.822;9.270;2022-10-03T21:14:02;11.60;;;9.33;;
9322;SDS011;4700;48.822;9.270;2022-10-03T21:16:59;12.27;;;10.20;;
9322;SDS011;4700;48.822;9.270;2022-10-03T21:19:49;11.77;;;10.17;;
9322;SDS011;4700;48.822;9.270;2022-10-03T21:22:37;13.00;;;10.20;;
9322;SDS011;4700;48.822;9.270;2022-10-03T21:25:27;10.77;;;9.57;;
9322;SDS011;4700;48.822;9.270;2022-10-03T21:28:19;15.33;;;9.87;;
9322;SDS011;4700;48.822;9.270;2022-10-03T21:34:24;12.30;;;10.70;;
9322;SDS011;4700;48.822;9.270;2022-10-03T21:37:15;15.77;;;10.60;;
9322;SDS011;4700;48.822;9.270;2022-10-03T21:40:11;11.97;;;10.70;;
9322;SDS011;4700;48.822;9.270;2022-10-03T21:43:11;14.00;;;10.83;;
9322;SDS011;4700;48.822;9.270;2022-10-03T21:46:07;13.53;;;9.67;;
9322;SDS011;4700;48.822;9.270;2022-10-03T21:48:54;16.47;;;9.67;;
9322;SDS011;4700;48.822;9.270;2022-10-03T21:51:59;15.43;;;11.37;;
9322;SDS011;4700;48.822;9.270;2022-10-03T21:55:00;10.27;;;9.27;;
9322;SDS011;4700;48.822;9.270;2022-10-03T21:58:10;11.43;;;10.20;;
9322;SDS011;4700;48.822;9.270;2022-10-03T22:01:10;12.60;;;9.87;;
9322;SDS011;4700;48.822;9.270;2022-10-03T22:04:02;11.97;;;8.77;;
9322;SDS011;4700;48.822;9.270;2022-10-03T22:06:54;11.80;;;10.47;;
9322;SDS011;4700;48.822;9.270;2022-10-03T22:09:47;12.40;;;8.83;;
9322;SDS011;4700;48.822;9.270;2022-10-03T22:12:39;9.47;;;8.50;;
9322;SDS011;4700;48.822;9.270;2022-10-03T22:15:30;9.53;;;8.63;;
9322;SDS011;4700;48.822;9.270;2022-10-03T22:18:22;13.87;;;10.20;;
9322;SDS011;4700;48.822;9.270;2022-10-03T22:21:14;12.70;;;10.40;;
9322;SDS011;4700;48.822;9.270;2022-10-03T22:24:09;16.07;;;10.87;;
9322;SDS011;4700;48.822;9.270;2022-10-03T22:27:02;12.83;;;10.30;;
9322;SDS011;4700;48.822;9.270;2022-10-03T22:30:00;16.00;;;10.93;;
9322;SDS011;4700;48.822;9.270;2022-10-03T22:32:53;12.87;;;10.90;;
9322;SDS011;4700;48.822;9.270;2022-10-03T22:35:47;14.27;;;10.60;;
9322;SDS011;4700;48.822;9.270;2022-10-03T22:38:36;13.80;;;11.87;;
9322;SDS011;4700;48.822;9.270;2022-10-03T22:41:22;18.47;;;11.00;;
9322;SDS011;4700;48.822;9.270;2022-10-03T22:44:11;10.90;;;9.80;;
9322;SDS011;4700;48.822;9.270;2022-10-03T22:47:01;13.93;;;9.90;;
9322;SDS011;4700;48.822;9.270;2022-10-03T22:49:51;14.03;;;11.33;;
9322;SDS011;4700;48.822;9.270;2022-10-03T22:52:42;15.33;;;13.57;;
9322;SDS011;4700;48.822;9.270;2022-10-03T22:55:32;15.03;;;13.43;;
9322;SDS011;4700;48.822;9.270;2022-10-03T22:58:18;14.13;;;11.00;;
9322;SDS011;4700;48.822;9.270;2022-10-03T23:01:06;13.43;;;10.83;;
9322;SDS011;4700;48.822;9.270;2022-10-03T23:03:52;14.03;;;10.80;;
9322;SDS011;4700;48.822;9.270;2022-10-03T23:06:42;14.40;;;10.90;;
9322;SDS011;4700;48.822;9.270;2022-10-03T23:09:48;13.50;;;10.60;;
9322;SDS011;4700;48.822;9.270;2022-10-03T23:12:46;15.73;;;11.43;;
9322;SDS011;4700;48.822;9.270;2022-10-03T23:15:35;11.47;;;10.00;;
9322;SDS011;4700;48.822;9.270;2022-10-03T23:18:26;17.90;;;11.30;;
9322;SDS011;4700;48.822;9.270;2022-10-03T23:21:35;12.43;;;9.80;;
9322;SDS011;4700;48.822;9.270;2022-10-03T23:24:29;13.30;;;12.00;;
9322;SDS011;4700;48.822;9.270;2022-10-03T23:33:47;19.67;;;10.97;;
9322;SDS011;4700;48.822;9.270;2022-10-03T23:36:38;12.43;;;11.13;;
9322;SDS011;4700;48.822;9.270;2022-10-03T23:39:44;13.70;;;9.90;;
9322;SDS011;4700;48.822;9.270;2022-10-03T23:43:24;10.00;;;8.97;;
9322;SDS011;4700;48.822;9.270;2022-10-03T23:46:21;11.90;;;8.17;;
9322;SDS011;4700;48.822;9.270;2022-10-03T23:49:09;9.40;;;8.50;;
9322;SDS011;4700;48.822;9.270;2022-10-03T23:51:56;14.63;;;9.77;;